Time;durP1;ratioP1;P1;durP2;ratioP2;P2;SDS_P1;SDS_P2;PMS_P1;PMS_P2;Temp;Humidity;BMP_temperature;BMP_pressure;BME280_temperature;BME280_humidity;BME280_pressure;Samples;Min_cycle;Max_cycle;Signal;HPM_P1;HPM_P2
2022/08/23 00:00:42;;;;;;;22.42;3.03;;;40.60;46.80;;;;;;5052418;28;20044;-66
2022/08/23 00:03:08;;;;;;;17.02;3.33;;;40.60;46.20;;;;;;5051032;28;20052;-70
2022/08/23 00:05:35;;;;;;;16.23;2.63;;;40.60;46.10;;;;;;5045996;28;20081;-65
2022/08/23 00:08:01;;;;;;;18.90;2.90;;;40.50;46.00;;;;;;5063964;28;20043;-65
2022/08/23 00:10:31;;;;;;;27.17;2.92;;;40.60;46.30;;;;;;5051010;28;20121;-67
2022/08/23 00:12:57;;;;;;;15.73;2.75;;;40.50;46.10;;;;;;5046301;28;20034;-67
2022/08/23 00:15:24;;;;;;;20.77;3.20;;;40.50;45.50;;;;;;5054942;28;20442;-67
2022/08/23 00:17:51;;;;;;;14.98;3.28;;;40.50;45.50;;;;;;5053266;28;20146;-66
2022/08/23 00:20:19;;;;;;;23.67;3.00;;;40.50;45.50;;;;;;5046991;28;20119;-66
2022/08/23 00:22:45;;;;;;;13.20;2.30;;;40.40;45.40;;;;;;5052754;28;20046;-68
2022/08/23 00:25:14;;;;;;;19.65;2.63;;;40.30;45.10;;;;;;5052143;28;20497;-66
2022/08/23 00:27:41;;;;;;;16.63;2.40;;;40.30;45.40;;;;;;5049987;28;20050;-66
2022/08/23 00:30:12;;;;;;;21.45;3.13;;;40.20;45.60;;;;;;5049962;28;20060;-68
2022/08/23 00:32:40;;;;;;;16.30;3.08;;;40.20;45.80;;;;;;5047179;28;20040;-69
2022/08/23 00:35:10;;;;;;;19.15;3.00;;;40.20;45.50;;;;;;5064493;28;20565;-69
2022/08/23 00:37:37;;;;;;;26.70;3.22;;;40.10;45.60;;;;;;5049507;28;20038;-67
2022/08/23 00:40:08;;;;;;;16.83;2.60;;;40.10;46.40;;;;;;5048446;28;20575;-68
2022/08/23 00:48:15;;;;;;;14.60;2.42;;;39.90;46.40;;;;;;5053040;28;19936;-68
2022/08/23 00:51:17;;;;;;;19.13;4.00;;;39.90;46.80;;;;;;5051754;28;20054;-67
2022/08/23 00:53:47;;;;;;;25.08;3.50;;;39.80;46.50;;;;;;5048965;28;20054;-69
2022/08/23 00:56:17;;;;;;;25.25;4.47;;;39.80;46.70;;;;;;5065772;28;20040;-68
2022/08/23 00:58:45;;;;;;;25.70;4.75;;;39.70;46.10;;;;;;5066844;28;20044;-68
2022/08/23 01:01:13;;;;;;;35.78;8.10;;;39.60;46.70;;;;;;5065729;28;20045;-67
2022/08/23 01:03:44;;;;;;;30.50;6.35;;;39.60;46.90;;;;;;5052381;28;20038;-67
2022/08/23 01:06:26;;;;;;;52.55;13.32;;;39.50;46.90;;;;;;5049955;28;20041;-67
2022/08/23 01:08:58;;;;;;;27.85;2.90;;;39.40;47.30;;;;;;5040878;28;20097;-67
2022/08/23 01:11:32;;;;;;;17.00;2.55;;;39.30;47.40;;;;;;5048288;28;20044;-69
2022/08/23 01:14:10;;;;;;;12.73;2.60;;;39.30;47.70;;;;;;5049591;28;20064;-67
2022/08/23 01:16:51;;;;;;;13.38;2.58;;;39.20;47.90;;;;;;5052500;28;20038;-67
2022/08/23 01:19:29;;;;;;;15.43;2.83;;;39.20;48.60;;;;;;5065550;28;20062;-67
2022/08/23 01:22:13;;;;;;;11.05;2.35;;;39.20;48.30;;;;;;5050753;28;20046;-70
2022/08/23 01:24:42;;;;;;;18.02;2.85;;;39.10;49.20;;;;;;5049215;28;20072;-70
2022/08/23 01:27:11;;;;;;;20.98;2.85;;;39.10;49.00;;;;;;5049384;28;20060;-68
2022/08/23 01:29:39;;;;;;;15.20;2.67;;;39.00;49.20;;;;;;5058191;28;20068;-69
2022/08/23 01:32:07;;;;;;;25.35;2.63;;;39.00;49.60;;;;;;5056340;28;20137;-68
2022/08/23 01:34:35;;;;;;;17.27;2.97;;;38.90;49.60;;;;;;5067500;28;20068;-70
2022/08/23 01:37:07;;;;;;;14.02;2.38;;;38.80;49.60;;;;;;5066243;28;20122;-70
2022/08/23 01:39:35;;;;;;;13.57;2.35;;;38.80;50.50;;;;;;5049280;28;20098;-68
2022/08/23 01:42:02;;;;;;;10.10;2.15;;;38.80;50.80;;;;;;5053797;28;20048;-73
2022/08/23 01:44:29;;;;;;;15.18;2.35;;;38.70;50.60;;;;;;5049910;28;20529;-68
2022/08/23 01:46:55;;;;;;;17.45;3.05;;;38.60;50.60;;;;;;5052984;28;20156;-68
2022/08/23 01:49:22;;;;;;;15.93;2.45;;;38.60;50.90;;;;;;5049511;28;20061;-69
2022/08/23 01:51:48;;;;;;;13.43;2.22;;;38.60;51.60;;;;;;5055157;28;20067;-69
2022/08/23 01:54:15;;;;;;;16.65;3.00;;;38.50;52.10;;;;;;5073198;28;20611;-70
2022/08/23 01:56:45;;;;;;;17.55;3.40;;;38.40;53.00;;;;;;5050425;28;20145;-70
2022/08/23 01:59:15;;;;;;;11.70;3.10;;;38.30;53.70;;;;;;5050442;28;20489;-67
2022/08/23 02:01:42;;;;;;;19.17;3.22;;;38.30;54.30;;;;;;5048950;28;20057;-69
2022/08/23 02:04:11;;;;;;;16.70;3.75;;;38.20;54.60;;;;;;5065242;28;20080;-70
2022/08/23 02:06:38;;;;;;;16.45;3.70;;;38.10;54.90;;;;;;5050478;28;20099;-68
2022/08/23 02:09:05;;;;;;;22.00;3.85;;;38.10;55.10;;;;;;5047559;28;20068;-71
2022/08/23 02:11:40;;;;;;;30.35;4.00;;;38.00;55.40;;;;;;5065767;28;20064;-69
2022/08/23 02:14:10;;;;;;;21.40;3.75;;;38.00;55.70;;;;;;5067712;28;20067;-67
2022/08/23 02:16:40;;;;;;;17.77;3.15;;;37.90;56.00;;;;;;5049831;28;20047;-69
2022/08/23 02:19:10;;;;;;;23.38;3.83;;;37.90;56.40;;;;;;5048107;28;20120;-70
2022/08/23 02:21:38;;;;;;;14.38;4.07;;;37.90;56.60;;;;;;5048549;28;20133;-70
2022/08/23 02:24:11;;;;;;;16.60;3.20;;;37.70;57.00;;;;;;5048250;28;20113;-67
2022/08/23 02:26:41;;;;;;;18.50;3.60;;;37.70;57.40;;;;;;5050631;28;20068;-70
2022/08/23 02:29:14;;;;;;;20.42;2.70;;;37.70;57.90;;;;;;5071798;28;20102;-73
2022/08/23 02:31:43;;;;;;;15.32;3.08;;;37.60;58.60;;;;;;5048647;28;20105;-69
2022/08/23 02:34:14;;;;;;;15.40;3.35;;;37.50;59.10;;;;;;5051107;28;20848;-71
2022/08/23 02:36:42;;;;;;;23.30;3.55;;;37.40;59.50;;;;;;5046032;28;20104;-68
2022/08/23 02:39:09;;;;;;;12.20;3.22;;;37.30;59.90;;;;;;5046043;28;20096;-69
2022/08/23 02:41:37;;;;;;;14.00;3.70;;;37.30;60.40;;;;;;5047883;28;20496;-68
2022/08/23 02:44:04;;;;;;;23.77;5.38;;;37.20;61.00;;;;;;5062847;28;20441;-70
2022/08/23 02:46:31;;;;;;;22.90;4.93;;;37.10;61.20;;;;;;5061932;28;20147;-65
2022/08/23 02:48:58;;;;;;;17.33;3.50;;;37.10;61.50;;;;;;5048473;28;20172;-68
2022/08/23 02:51:25;;;;;;;18.08;3.15;;;37.00;62.00;;;;;;5050534;28;20055;-68
2022/08/23 02:53:51;;;;;;;18.40;4.05;;;36.90;62.40;;;;;;5055861;28;20160;-66
2022/08/23 02:56:18;;;;;;;14.30;3.65;;;36.80;62.80;;;;;;5064785;28;20074;-69
2022/08/23 02:58:48;;;;;;;21.52;2.97;;;36.70;63.20;;;;;;5064117;28;20154;-70
2022/08/23 03:01:20;;;;;;;15.02;3.28;;;36.60;63.20;;;;;;5064236;28;20061;-68
2022/08/23 03:03:47;;;;;;;10.40;2.75;;;36.60;63.40;;;;;;5047387;28;20059;-68
2022/08/23 03:06:14;;;;;;;12.10;3.35;;;36.50;63.60;;;;;;5063830;28;20092;-66
2022/08/23 03:08:42;;;;;;;20.35;3.28;;;36.40;63.90;;;;;;5046141;28;20102;-69
2022/08/23 03:11:17;;;;;;;15.00;2.83;;;36.30;64.20;;;;;;5062210;28;20088;-67
2022/08/23 03:13:47;;;;;;;20.73;3.17;;;36.30;64.40;;;;;;5050354;28;20067;-69
2022/08/23 03:16:15;;;;;;;17.52;3.35;;;36.10;64.60;;;;;;5048322;28;20128;-67
2022/08/23 03:18:42;;;;;;;13.57;2.97;;;36.10;64.80;;;;;;5054333;28;20095;-68
2022/08/23 03:21:09;;;;;;;12.57;3.22;;;36.00;65.00;;;;;;5053497;28;20070;-67
2022/08/23 03:23:37;;;;;;;10.93;3.25;;;36.00;65.20;;;;;;5054645;28;20058;-68
2022/08/23 03:26:05;;;;;;;18.50;3.22;;;35.90;65.30;;;;;;5058137;28;20159;-68
2022/08/23 03:28:34;;;;;;;12.18;2.72;;;35.80;65.50;;;;;;5056278;28;20059;-68
2022/08/23 03:31:01;;;;;;;12.27;3.05;;;35.70;65.60;;;;;;5051781;28;20092;-69
2022/08/23 03:33:27;;;;;;;11.10;2.80;;;35.70;65.40;;;;;;5051893;28;20063;-67
2022/08/23 03:36:02;;;;;;;8.32;2.30;;;35.60;65.50;;;;;;5052951;28;20558;-67
2022/08/23 03:38:28;;;;;;;13.38;3.08;;;35.50;65.70;;;;;;5050455;28;20074;-68
2022/08/23 03:40:55;;;;;;;15.38;2.70;;;35.50;65.80;;;;;;5069106;28;20590;-67
2022/08/23 03:43:22;;;;;;;14.48;3.17;;;35.40;66.00;;;;;;5051899;28;20078;-68
2022/08/23 03:45:49;;;;;;;15.35;3.25;;;35.40;66.20;;;;;;5070041;28;20069;-68
2022/08/23 03:48:16;;;;;;;13.85;2.72;;;35.30;66.40;;;;;;5052108;28;20066;-67
2022/08/23 03:50:42;;;;;;;12.77;2.38;;;35.30;66.50;;;;;;5051085;28;20090;-69
2022/08/23 03:53:09;;;;;;;15.45;3.03;;;35.30;66.80;;;;;;5051833;28;20072;-67
2022/08/23 03:55:36;;;;;;;10.75;2.85;;;35.20;67.20;;;;;;5051931;28;20096;-67
2022/08/23 03:58:02;;;;;;;15.23;2.78;;;35.10;67.30;;;;;;5051124;28;20113;-67
2022/08/23 04:00:29;;;;;;;9.63;3.10;;;35.00;67.60;;;;;;5052326;28;20076;-67
2022/08/23 04:02:55;;;;;;;15.95;3.05;;;35.00;67.80;;;;;;5068861;28;20074;-68
2022/08/23 04:05:21;;;;;;;8.80;3.03;;;34.90;68.10;;;;;;5071334;28;20561;-68
2022/08/23 04:07:48;;;;;;;10.30;3.15;;;34.90;68.50;;;;;;5072844;28;20071;-67
2022/08/23 04:10:14;;;;;;;11.30;2.97;;;34.90;68.90;;;;;;5054600;28;20094;-67
2022/08/23 04:12:42;;;;;;;13.75;2.88;;;34.80;69.30;;;;;;5052704;28;20070;-69
2022/08/23 04:15:10;;;;;;;12.85;3.35;;;34.70;69.60;;;;;;5056201;28;20516;-68
2022/08/23 04:17:37;;;;;;;12.55;3.72;;;34.70;69.90;;;;;;5051105;28;20552;-70
2022/08/23 04:20:05;;;;;;;19.13;4.40;;;34.60;70.30;;;;;;5068199;28;20107;-68
2022/08/23 04:22:32;;;;;;;14.77;3.85;;;34.60;70.80;;;;;;5068062;28;20081;-68
2022/08/23 04:24:59;;;;;;;14.05;4.95;;;34.60;71.20;;;;;;5051573;28;20078;-67
2022/08/23 04:27:25;;;;;;;17.85;4.40;;;34.50;71.60;;;;;;5050697;28;20081;-68
2022/08/23 04:29:52;;;;;;;13.10;3.85;;;34.40;72.00;;;;;;5068536;28;20287;-68
2022/08/23 04:32:18;;;;;;;9.38;4.50;;;34.30;72.50;;;;;;5067448;28;20154;-68
2022/08/23 04:34:46;;;;;;;16.55;4.90;;;34.30;73.10;;;;;;5051415;28;20085;-68
2022/08/23 04:37:13;;;;;;;11.93;4.50;;;34.20;73.70;;;;;;5052902;28;20641;-68
2022/08/23 04:42:44;;;;;;;13.77;4.07;;;34.00;74.80;;;;;;4971455;28;20781;-68
2022/08/23 04:45:10;;;;;;;15.32;4.10;;;34.00;75.70;;;;;;4969832;28;20144;-68
2022/08/23 04:47:40;;;;;;;10.35;3.30;;;33.90;76.00;;;;;;4969331;28;20079;-69
2022/08/23 04:50:07;;;;;;;9.50;3.30;;;33.90;76.50;;;;;;4953404;28;20096;-69
2022/08/23 04:52:33;;;;;;;14.35;3.47;;;33.80;76.80;;;;;;4954354;28;20080;-70
2022/08/23 04:55:00;;;;;;;13.00;3.83;;;33.80;77.30;;;;;;4985888;28;20087;-68
2022/08/23 04:57:26;;;;;;;20.20;4.20;;;33.70;77.50;;;;;;4983117;28;20149;-71
2022/08/23 04:59:53;;;;;;;11.65;3.42;;;33.70;77.90;;;;;;4957849;28;20083;-69
2022/08/23 05:02:20;;;;;;;17.35;3.55;;;33.70;79.00;;;;;;4970646;28;20082;-69
2022/08/23 05:04:46;;;;;;;15.57;4.28;;;33.60;78.40;;;;;;4969965;28;20077;-69
2022/08/23 05:07:14;;;;;;;15.80;3.05;;;33.50;78.70;;;;;;4954986;28;20117;-71
2022/08/23 05:09:40;;;;;;;14.32;3.20;;;33.50;79.10;;;;;;4970541;28;20137;-70
2022/08/23 05:12:07;;;;;;;14.20;3.72;;;33.40;79.40;;;;;;4969475;28;20074;-68
2022/08/23 05:14:33;;;;;;;19.20;3.95;;;33.40;79.60;;;;;;5045076;28;20084;-69
2022/08/23 05:17:01;;;;;;;13.98;3.92;;;33.40;79.80;;;;;;5049999;28;20093;-67
2022/08/23 05:19:27;;;;;;;13.43;4.22;;;33.40;79.90;;;;;;5068518;28;20076;-67
2022/08/23 05:21:54;;;;;;;10.25;4.70;;;33.30;80.20;;;;;;5050944;28;20099;-68
2022/08/23 05:24:20;;;;;;;8.90;3.10;;;33.30;80.20;;;;;;5050109;28;20069;-68
2022/08/23 05:26:46;;;;;;;16.92;3.92;;;33.20;80.30;;;;;;5065926;28;20084;-68
2022/08/23 05:29:14;;;;;;;9.52;3.92;;;33.20;80.50;;;;;;5051057;28;20085;-66
2022/08/23 05:31:40;;;;;;;13.35;3.85;;;33.20;80.90;;;;;;5066141;28;20069;-65
2022/08/23 05:34:06;;;;;;;14.13;4.82;;;33.10;81.10;;;;;;5048894;28;20525;-68
2022/08/23 05:36:33;;;;;;;11.60;3.72;;;33.10;81.40;;;;;;5065934;28;20101;-68
2022/08/23 05:38:59;;;;;;;11.23;4.30;;;33.10;81.90;;;;;;5048230;28;20142;-68
2022/08/23 05:41:26;;;;;;;7.22;3.30;;;33.10;82.20;;;;;;5066539;28;20228;-68
2022/08/23 05:43:53;;;;;;;15.70;3.60;;;33.10;82.90;;;;;;5050964;28;20167;-69
2022/08/23 05:46:21;;;;;;;10.75;3.17;;;33.00;83.50;;;;;;5049406;28;20067;-68
2022/08/23 05:48:50;;;;;;;6.75;3.00;;;33.00;84.20;;;;;;5050189;28;20072;-69
2022/08/23 05:51:24;;;;;;;16.55;3.95;;;32.90;85.00;;;;;;5065142;28;20069;-70
2022/08/23 05:53:52;;;;;;;11.75;4.18;;;32.90;85.60;;;;;;5047683;28;20073;-68
2022/08/23 05:56:24;;;;;;;17.23;4.20;;;32.80;85.80;;;;;;5049289;28;20527;-68
2022/08/23 05:58:52;;;;;;;10.57;3.17;;;32.80;86.10;;;;;;5048769;28;20080;-67
2022/08/23 06:01:20;;;;;;;13.52;3.80;;;32.80;86.30;;;;;;5048512;28;20069;-68
2022/08/23 06:03:47;;;;;;;18.00;2.97;;;32.70;86.40;;;;;;5065343;28;20076;-69
2022/08/23 06:06:15;;;;;;;16.52;3.70;;;32.70;86.70;;;;;;5065273;28;20088;-67
2022/08/23 06:08:45;;;;;;;17.38;4.15;;;32.60;86.70;;;;;;5048320;28;20137;-67
2022/08/23 06:11:24;;;;;;;11.88;3.50;;;32.60;86.60;;;;;;5048425;28;20063;-68
2022/08/23 06:13:53;;;;;;;8.45;3.53;;;32.60;86.40;;;;;;5051831;28;20468;-70
2022/08/23 06:16:23;;;;;;;16.13;3.83;;;32.50;86.60;;;;;;5064966;28;20411;-69
2022/08/23 06:18:50;;;;;;;14.45;3.58;;;32.50;86.70;;;;;;5059271;28;20663;-69
2022/08/23 06:21:18;;;;;;;11.13;3.15;;;32.50;86.30;;;;;;5049238;28;20564;-69
2022/08/23 06:23:48;;;;;;;11.93;3.08;;;32.40;86.40;;;;;;5049054;28;20079;-68
2022/08/23 06:26:21;;;;;;;10.55;3.45;;;32.50;85.90;;;;;;5048347;28;20075;-70
2022/08/23 06:28:53;;;;;;;17.70;3.20;;;32.50;85.60;;;;;;5048242;28;20075;-68
2022/08/23 06:34:08;;;;;;;9.30;2.92;;;32.50;84.30;;;;;;5048620;28;20103;-68
2022/08/23 06:36:36;;;;;;;12.88;3.45;;;32.40;83.70;;;;;;5049155;28;20079;-68
2022/08/23 06:39:05;;;;;;;11.38;2.90;;;32.40;83.40;;;;;;5048098;28;20516;-68
2022/08/23 06:41:31;;;;;;;9.80;2.72;;;32.40;83.10;;;;;;5049310;28;20068;-68
2022/08/23 06:43:58;;;;;;;11.90;2.75;;;32.40;82.90;;;;;;5046792;28;20456;-68
2022/08/23 06:46:26;;;;;;;13.80;3.30;;;32.40;82.50;;;;;;5048028;28;20088;-68
2022/08/23 06:48:53;;;;;;;7.72;2.95;;;32.40;82.20;;;;;;5054344;28;20076;-68
2022/08/23 06:51:22;;;;;;;11.25;3.00;;;32.40;81.70;;;;;;5049074;28;20169;-67
2022/08/23 06:53:50;;;;;;;13.60;2.78;;;32.40;81.50;;;;;;5053991;28;20118;-69
2022/08/23 06:56:17;;;;;;;8.32;2.53;;;32.40;81.10;;;;;;5048041;28;20125;-68
2022/08/23 06:58:43;;;;;;;9.63;2.65;;;32.40;80.90;;;;;;5063708;28;20162;-70
2022/08/23 07:01:28;;;;;;;8.77;2.40;;;32.40;80.90;;;;;;5063989;28;20065;-69
2022/08/23 07:03:56;;;;;;;21.38;3.55;;;32.40;80.90;;;;;;5047831;28;20108;-69
2022/08/23 07:06:23;;;;;;;10.55;2.58;;;32.30;81.10;;;;;;5063211;28;20096;-68
2022/08/23 07:08:50;;;;;;;16.10;3.33;;;32.30;80.60;;;;;;5047852;28;20076;-68
2022/08/23 07:11:17;;;;;;;10.93;2.58;;;32.30;80.80;;;;;;5047567;28;20076;-69
2022/08/23 07:13:44;;;;;;;11.30;3.40;;;32.30;80.60;;;;;;5052627;28;20122;-70
2022/08/23 07:16:10;;;;;;;10.13;2.83;;;32.30;80.70;;;;;;5045811;28;20122;-68
2022/08/23 07:18:38;;;;;;;11.48;2.65;;;32.30;80.50;;;;;;5047852;28;20080;-70
2022/08/23 07:21:05;;;;;;;12.30;2.45;;;32.30;81.00;;;;;;5047663;28;20075;-69
2022/08/23 07:23:33;;;;;;;10.02;2.22;;;32.30;80.10;;;;;;5051213;28;20076;-69
2022/08/23 07:26:01;;;;;;;8.23;2.10;;;32.20;80.10;;;;;;5047077;28;20072;-67
2022/08/23 07:28:29;;;;;;;7.13;2.38;;;32.20;80.00;;;;;;5064009;28;20106;-69
2022/08/23 07:31:07;;;;;;;9.30;2.63;;;32.20;79.60;;;;;;5047639;28;20087;-68
2022/08/23 07:33:33;;;;;;;9.73;2.60;;;32.20;79.70;;;;;;5047392;28;20079;-68
2022/08/23 07:36:00;;;;;;;5.65;2.28;;;32.10;79.50;;;;;;5046690;28;20147;-70
2022/08/23 07:38:26;;;;;;;12.25;2.58;;;32.10;79.70;;;;;;5046990;28;20527;-67
2022/08/23 07:40:52;;;;;;;9.25;2.20;;;32.10;79.60;;;;;;5047518;28;20120;-69
2022/08/23 07:43:19;;;;;;;9.75;2.95;;;32.10;79.70;;;;;;5047101;28;20072;-68
2022/08/23 07:45:47;;;;;;;15.57;3.22;;;32.10;79.70;;;;;;5047400;28;20079;-67
2022/08/23 07:48:15;;;;;;;12.90;3.08;;;32.00;79.70;;;;;;5047233;28;20088;-68
2022/08/23 07:50:41;;;;;;;11.32;2.97;;;32.10;80.10;;;;;;5046461;28;20088;-67
2022/08/23 07:53:08;;;;;;;11.68;2.97;;;32.10;79.90;;;;;;5048482;28;20099;-69
2022/08/23 07:55:38;;;;;;;10.18;2.58;;;32.00;79.80;;;;;;5052136;28;20087;-69
2022/08/23 07:58:05;;;;;;;12.35;2.80;;;32.00;80.00;;;;;;5063354;28;20597;-70
2022/08/23 08:00:32;;;;;;;6.50;2.35;;;32.00;80.10;;;;;;5046494;28;20077;-69
2022/08/23 08:02:59;;;;;;;9.57;2.30;;;32.00;80.60;;;;;;5046299;28;20438;-69
2022/08/23 08:05:25;;;;;;;12.55;2.83;;;32.00;80.70;;;;;;5046912;28;20072;-67
2022/08/23 08:07:52;;;;;;;10.80;2.55;;;31.90;80.70;;;;;;5046286;28;20072;-68
2022/08/23 08:10:18;;;;;;;10.73;2.30;;;31.90;81.10;;;;;;5052640;28;20091;-69
2022/08/23 08:12:45;;;;;;;14.45;2.65;;;31.80;81.30;;;;;;5056701;28;20587;-68
2022/08/23 08:15:11;;;;;;;8.55;2.95;;;31.80;81.70;;;;;;5052012;28;20076;-69
2022/08/23 08:17:38;;;;;;;9.68;2.80;;;31.90;81.80;;;;;;5051172;28;20088;-68
2022/08/23 08:20:05;;;;;;;11.70;2.88;;;31.90;81.90;;;;;;5058076;28;20103;-67
2022/08/23 08:22:31;;;;;;;14.57;2.80;;;31.80;82.10;;;;;;5058559;28;20073;-67
2022/08/23 08:24:57;;;;;;;8.65;2.38;;;31.80;82.50;;;;;;5066943;28;20092;-69
2022/08/23 08:27:24;;;;;;;10.45;2.80;;;31.70;82.50;;;;;;5049892;28;20108;-68
2022/08/23 08:29:51;;;;;;;8.60;2.75;;;31.70;82.80;;;;;;5050831;28;20085;-68
2022/08/23 08:32:17;;;;;;;11.20;2.78;;;31.70;83.10;;;;;;5051903;28;20060;-68
2022/08/23 08:34:43;;;;;;;6.47;2.50;;;31.60;83.20;;;;;;5067105;28;20069;-68
2022/08/23 08:37:10;;;;;;;12.20;3.25;;;31.60;83.40;;;;;;5050202;28;20084;-68
2022/08/23 08:39:44;;;;;;;11.10;2.88;;;31.60;83.50;;;;;;5049697;28;20203;-68
2022/08/23 08:42:16;;;;;;;13.98;3.05;;;31.60;83.90;;;;;;5051143;28;20103;-68
2022/08/23 08:44:53;;;;;;;9.40;2.92;;;31.60;84.20;;;;;;5050066;28;20077;-68
2022/08/23 08:47:44;;;;;;;10.48;2.70;;;31.60;84.10;;;;;;5049518;28;20072;-68
2022/08/23 08:50:42;;;;;;;11.93;3.13;;;31.50;84.30;;;;;;5050932;28;20167;-68
2022/08/23 08:53:12;;;;;;;6.47;2.45;;;31.50;84.50;;;;;;5047389;28;20548;-70
2022/08/23 08:55:45;;;;;;;7.10;2.63;;;31.50;84.80;;;;;;5050018;28;20650;-68
2022/08/23 08:58:18;;;;;;;8.43;3.00;;;31.50;85.00;;;;;;5051903;28;20108;-70
2022/08/23 09:00:45;;;;;;;9.77;2.58;;;31.40;85.20;;;;;;5050597;28;20082;-69
2022/08/23 09:03:15;;;;;;;12.10;3.10;;;31.40;85.60;;;;;;5049891;28;20100;-68
2022/08/23 09:05:54;;;;;;;11.20;2.80;;;31.40;85.80;;;;;;5050615;28;20127;-69
2022/08/23 09:08:44;;;;;;;9.73;2.92;;;31.40;86.10;;;;;;5049890;28;20087;-68
2022/08/23 09:11:34;;;;;;;7.50;2.65;;;31.40;86.20;;;;;;5044900;28;20108;-68
2022/08/23 09:14:25;;;;;;;9.05;3.00;;;31.30;86.10;;;;;;5048354;28;20084;-68
2022/08/23 09:16:55;;;;;;;12.90;2.85;;;31.30;86.30;;;;;;5047598;28;20545;-68
2022/08/23 09:19:24;;;;;;;9.02;2.92;;;31.30;86.50;;;;;;5050291;28;20545;-68
2022/08/23 09:21:57;;;;;;;8.13;3.30;;;31.30;86.30;;;;;;5049434;28;20075;-68
2022/08/23 09:24:25;;;;;;;9.07;3.58;;;31.30;86.60;;;;;;5049437;28;20076;-68
2022/08/23 09:26:52;;;;;;;11.98;4.22;;;31.20;86.70;;;;;;5049529;28;20118;-70
2022/08/23 09:29:27;;;;;;;11.27;4.68;;;31.20;87.00;;;;;;5049545;28;20469;-68
2022/08/23 09:32:01;;;;;;;16.10;4.22;;;31.10;87.30;;;;;;5067797;28;20548;-68
2022/08/23 09:34:36;;;;;;;16.48;4.25;;;31.10;87.40;;;;;;5048929;28;20084;-68
2022/08/23 09:37:25;;;;;;;12.35;3.72;;;31.10;87.40;;;;;;5065394;28;20553;-68
2022/08/23 09:40:31;;;;;;;6.10;3.05;;;31.10;87.60;;;;;;5048283;28;20577;-68
2022/08/23 09:43:06;;;;;;;10.43;3.88;;;31.00;88.10;;;;;;5027204;28;20092;-68
2022/08/23 09:45:36;;;;;;;12.65;4.32;;;31.00;88.40;;;;;;5025288;28;20179;-69
2022/08/23 09:48:04;;;;;;;10.10;3.72;;;31.00;88.70;;;;;;5027673;28;20164;-68
2022/08/23 09:50:37;;;;;;;10.02;3.17;;;30.90;88.90;;;;;;5028509;28;20085;-68
2022/08/23 09:53:13;;;;;;;8.38;2.88;;;30.90;89.40;;;;;;5011308;28;20642;-68
2022/08/23 09:55:47;;;;;;;12.32;2.80;;;30.90;89.60;;;;;;5027810;28;20163;-68
2022/08/23 09:58:26;;;;;;;8.73;2.88;;;30.80;89.90;;;;;;5010054;28;20080;-68
2022/08/23 10:01:08;;;;;;;33.70;4.43;;;30.80;90.20;;;;;;5011806;28;20176;-68
2022/08/23 10:03:34;;;;;;;8.27;2.85;;;30.70;90.60;;;;;;5010808;28;20085;-68
2022/08/23 10:06:01;;;;;;;6.95;2.70;;;30.70;90.90;;;;;;5015217;28;20081;-68
2022/08/23 10:08:32;;;;;;;9.35;3.08;;;30.70;91.20;;;;;;5011415;28;20084;-68
2022/08/23 10:11:07;;;;;;;13.27;3.22;;;30.60;91.40;;;;;;4995144;28;20120;-68
2022/08/23 10:13:33;;;;;;;11.52;3.00;;;30.60;91.70;;;;;;5029701;28;20167;-68
2022/08/23 10:16:34;;;;;;;7.18;2.97;;;30.60;92.00;;;;;;5009983;28;20111;-68
2022/08/23 10:19:19;;;;;;;9.95;3.13;;;30.50;92.30;;;;;;5038251;28;20103;-68
2022/08/23 10:22:07;;;;;;;15.70;3.60;;;30.60;92.60;;;;;;5048593;28;20122;-68
2022/08/23 10:24:45;;;;;;;8.57;2.88;;;30.50;92.80;;;;;;5048491;28;20550;-68
2022/08/23 10:30:20;;;;;;;7.43;3.25;;;30.40;93.30;;;;;;5062084;28;20098;-68
2022/08/23 10:33:12;;;;;;;8.05;3.45;;;30.40;93.40;;;;;;5048062;28;20072;-68
2022/08/23 10:35:54;;;;;;;10.05;3.45;;;30.40;93.80;;;;;;5048859;28;20103;-68
2022/08/23 10:38:48;;;;;;;8.07;3.08;;;30.30;94.10;;;;;;5046830;28;20446;-68
2022/08/23 10:41:46;;;;;;;13.80;3.50;;;30.30;94.70;;;;;;5046621;28;20107;-68
2022/08/23 10:45:04;;;;;;;11.52;3.47;;;30.30;95.00;;;;;;5040445;28;20111;-68
2022/08/23 10:47:49;;;;;;;11.85;4.15;;;30.30;95.50;;;;;;5045885;28;20454;-68
2022/08/23 10:50:19;;;;;;;13.05;4.28;;;30.30;95.70;;;;;;5049359;28;20744;-68
2022/08/23 10:52:54;;;;;;;10.68;3.90;;;30.20;96.10;;;;;;5046710;28;20075;-68
2022/08/23 10:56:01;;;;;;;10.25;3.60;;;30.20;96.20;;;;;;5047671;28;20576;-68
2022/08/23 10:58:37;;;;;;;13.63;4.15;;;30.20;96.50;;;;;;5063178;28;20080;-68
2022/08/23 11:01:05;;;;;;;13.70;3.90;;;30.20;96.70;;;;;;5047489;28;20534;-68
2022/08/23 11:03:42;;;;;;;15.57;5.32;;;30.20;96.80;;;;;;5047753;28;20415;-68
2022/08/23 11:06:36;;;;;;;14.30;4.55;;;30.20;97.00;;;;;;5047577;28;20076;-68
2022/08/23 11:09:29;;;;;;;18.88;6.05;;;30.20;97.20;;;;;;5049017;28;20154;-68
2022/08/23 11:12:25;;;;;;;17.60;6.35;;;30.20;97.70;;;;;;5063299;28;20083;-68
2022/08/23 11:15:07;;;;;;;18.17;5.88;;;30.20;98.00;;;;;;5048082;28;20071;-68
2022/08/23 11:17:48;;;;;;;14.10;4.70;;;30.20;98.50;;;;;;5045121;28;20469;-70
2022/08/23 11:20:50;;;;;;;16.65;4.55;;;30.20;99.10;;;;;;5047955;28;20434;-68
2022/08/23 11:23:37;;;;;;;12.57;4.10;;;30.20;99.60;;;;;;5047027;28;20076;-68
2022/08/23 11:26:07;;;;;;;13.30;3.88;;;30.20;99.90;;;;;;5046064;28;20076;-67
2022/08/23 11:28:43;;;;;;;12.20;4.15;;;30.20;99.90;;;;;;5047365;28;20073;-68
2022/08/23 11:31:25;;;;;;;;;;;30.20;99.90;;;;;;5048127;28;20095;-70
2022/08/23 11:34:05;;;;;;;9.18;3.60;;;30.20;99.90;;;;;;5048691;28;19956;-68
2022/08/23 11:36:34;;;;;;;12.13;3.55;;;30.20;99.90;;;;;;5046889;28;20171;-68
2022/08/23 11:39:12;;;;;;;11.65;3.90;;;30.10;99.90;;;;;;5047474;28;20166;-68
2022/08/23 11:41:53;;;;;;;13.13;4.45;;;30.10;99.90;;;;;;5047170;28;20166;-68
2022/08/23 11:44:45;;;;;;;13.35;3.97;;;30.10;99.90;;;;;;5050726;28;20513;-69
2022/08/23 11:47:12;;;;;;;12.25;3.70;;;30.10;99.90;;;;;;5055050;28;20541;-68
2022/08/23 11:49:48;;;;;;;10.18;3.22;;;30.10;99.90;;;;;;5057011;28;20092;-68
2022/08/23 11:52:37;;;;;;;12.57;4.05;;;30.00;99.90;;;;;;5050956;28;20102;-68
2022/08/23 11:55:12;;;;;;;12.75;3.80;;;30.10;99.90;;;;;;5053253;28;20072;-66
2022/08/23 11:57:56;;;;;;;12.25;3.50;;;30.00;99.90;;;;;;5051395;28;20125;-68
2022/08/23 12:00:45;;;;;;;13.82;4.15;;;30.00;99.90;;;;;;5051330;28;20068;-67
2022/08/23 12:03:32;;;;;;;13.27;4.20;;;30.00;99.90;;;;;;5050741;28;20072;-67
2022/08/23 12:06:31;;;;;;;16.27;4.15;;;30.00;99.90;;;;;;5050629;28;20126;-68
2022/08/23 12:09:00;;;;;;;14.30;4.35;;;29.80;99.90;;;;;;5052114;28;20137;-67
2022/08/23 12:12:06;;;;;;;18.52;4.15;;;29.80;99.90;;;;;;5050209;28;20114;-68
2022/08/23 12:14:42;;;;;;;14.02;4.32;;;29.80;99.90;;;;;;5040879;28;20080;-68
2022/08/23 12:17:11;;;;;;;20.50;4.87;;;29.80;99.90;;;;;;5050745;28;20095;-68
2022/08/23 12:20:04;;;;;;;18.65;4.43;;;29.80;99.90;;;;;;5050202;28;20069;-68
2022/08/23 12:22:53;;;;;;;17.67;4.28;;;29.80;99.90;;;;;;5050042;28;20702;-68
2022/08/23 12:25:22;;;;;;;13.20;3.85;;;29.80;99.90;;;;;;5066067;28;20087;-68
2022/08/23 12:28:02;;;;;;;18.52;4.13;;;29.70;99.90;;;;;;5050080;28;20077;-68
2022/08/23 12:31:00;;;;;;;17.08;4.75;;;29.70;99.90;;;;;;5049903;28;20608;-68
2022/08/23 12:34:05;;;;;;;12.55;4.28;;;29.60;99.90;;;;;;4989828;28;20086;-67
2022/08/23 12:36:41;;;;;;;17.58;5.50;;;29.70;99.90;;;;;;4979763;28;20109;-68
2022/08/23 12:39:38;;;;;;;14.32;4.13;;;29.60;99.90;;;;;;4972680;28;20595;-67
2022/08/23 12:42:14;;;;;;;18.30;4.57;;;29.70;99.90;;;;;;4973470;28;20101;-67
2022/08/23 12:44:44;;;;;;;14.20;4.72;;;29.60;99.90;;;;;;4989720;28;20572;-67
2022/08/23 12:47:19;;;;;;;12.25;4.40;;;29.60;99.90;;;;;;4974188;28;20086;-68
2022/08/23 12:50:00;;;;;;;17.45;4.70;;;29.60;99.90;;;;;;4990432;28;20098;-68
2022/08/23 12:52:31;;;;;;;18.02;4.43;;;29.60;99.90;;;;;;4973393;28;20123;-68
2022/08/23 12:54:58;;;;;;;20.95;4.40;;;29.60;99.90;;;;;;4988838;28;20077;-68
2022/08/23 12:57:37;;;;;;;14.43;4.18;;;29.60;99.90;;;;;;4973740;28;20074;-68
2022/08/23 13:00:23;;;;;;;21.70;4.80;;;29.50;99.90;;;;;;4973529;28;20172;-68
2022/08/23 13:03:14;;;;;;;18.33;4.78;;;29.50;99.90;;;;;;4973396;28;20100;-67
2022/08/23 13:05:59;;;;;;;14.00;4.45;;;29.50;99.90;;;;;;4989213;28;20076;-68
2022/08/23 13:08:33;;;;;;;14.13;3.72;;;29.50;99.90;;;;;;4988768;28;20135;-68
2022/08/23 13:11:00;;;;;;;15.50;3.88;;;29.50;99.90;;;;;;5049654;28;20116;-69
2022/08/23 13:13:27;;;;;;;23.85;8.82;;;29.60;99.90;;;;;;5072595;28;20077;-67
2022/08/23 13:15:55;;;;;;;22.50;8.80;;;29.50;99.90;;;;;;5050572;28;20087;-68
2022/08/23 13:18:37;;;;;;;18.27;8.07;;;29.60;99.90;;;;;;5065847;28;20171;-68